sensor_id;sensor_type;location;lat;lon;timestamp;temperature;humidity
18593;DHT22;9426;54.118;17.948;2023-04-06T00:02:31;-2.80;99.90
18593;DHT22;9426;54.118;17.948;2023-04-06T00:08:14;-2.80;99.90
18593;DHT22;9426;54.118;17.948;2023-04-06T00:13:37;-2.80;99.90
18593;DHT22;9426;54.118;17.948;2023-04-06T00:19:01;-2.90;99.90
18593;DHT22;9426;54.118;17.948;2023-04-06T00:24:26;-2.90;99.90
18593;DHT22;9426;54.118;17.948;2023-04-06T00:29:50;-2.90;99.90
18593;DHT22;9426;54.118;17.948;2023-04-06T00:35:13;-2.90;99.90
18593;DHT22;9426;54.118;17.948;2023-04-06T00:40:39;-3.00;99.90
18593;DHT22;9426;54.118;17.948;2023-04-06T00:46:03;-3.00;99.90
18593;DHT22;9426;54.118;17.948;2023-04-06T00:51:27;-3.00;99.90
18593;DHT22;9426;54.118;17.948;2023-04-06T00:56:52;-3.00;99.90
18593;DHT22;9426;54.118;17.948;2023-04-06T01:02:16;-3.10;99.90
18593;DHT22;9426;54.118;17.948;2023-04-06T01:07:43;-3.20;99.90
18593;DHT22;9426;54.118;17.948;2023-04-06T01:13:12;-3.20;99.90
18593;DHT22;9426;54.118;17.948;2023-04-06T01:18:48;-3.10;99.90
18593;DHT22;9426;54.118;17.948;2023-04-06T01:24:22;-3.10;99.90
18593;DHT22;9426;54.118;17.948;2023-04-06T01:30:01;-3.10;99.90
18593;DHT22;9426;54.118;17.948;2023-04-06T01:35:40;-3.10;99.90
18593;DHT22;9426;54.118;17.948;2023-04-06T01:41:11;-3.10;99.90
18593;DHT22;9426;54.118;17.948;2023-04-06T01:46:42;-3.10;99.90
18593;DHT22;9426;54.118;17.948;2023-04-06T01:52:11;-3.00;99.90
18593;DHT22;9426;54.118;17.948;2023-04-06T01:57:41;-3.00;99.90
18593;DHT22;9426;54.118;17.948;2023-04-06T02:03:12;-3.00;99.90
18593;DHT22;9426;54.118;17.948;2023-04-06T02:08:37;-3.00;99.90
18593;DHT22;9426;54.118;17.948;2023-04-06T02:14:02;-3.00;99.90
18593;DHT22;9426;54.118;17.948;2023-04-06T02:19:30;-3.00;99.90
18593;DHT22;9426;54.118;17.948;2023-04-06T02:24:54;-3.00;99.90
18593;DHT22;9426;54.118;17.948;2023-04-06T02:30:19;-3.00;99.90
18593;DHT22;9426;54.118;17.948;2023-04-06T02:35:44;-3.10;99.90
18593;DHT22;9426;54.118;17.948;2023-04-06T02:41:08;-3.20;99.90
18593;DHT22;9426;54.118;17.948;2023-04-06T02:46:34;-3.20;99.90
18593;DHT22;9426;54.118;17.948;2023-04-06T02:51:58;-3.20;99.90
18593;DHT22;9426;54.118;17.948;2023-04-06T02:57:26;-3.30;99.90
18593;DHT22;9426;54.118;17.948;2023-04-06T03:02:51;-3.40;99.90
18593;DHT22;9426;54.118;17.948;2023-04-06T03:08:15;-3.50;99.90
18593;DHT22;9426;54.118;17.948;2023-04-06T03:13:40;-3.40;99.90
18593;DHT22;9426;54.118;17.948;2023-04-06T03:19:06;-3.30;99.90
18593;DHT22;9426;54.118;17.948;2023-04-06T03:24:31;-3.30;99.90
18593;DHT22;9426;54.118;17.948;2023-04-06T03:29:54;-3.30;99.90
18593;DHT22;9426;54.118;17.948;2023-04-06T03:35:26;-3.50;99.90
18593;DHT22;9426;54.118;17.948;2023-04-06T03:40:51;-3.40;99.90
18593;DHT22;9426;54.118;17.948;2023-04-06T03:46:19;-3.50;99.90
18593;DHT22;9426;54.118;17.948;2023-04-06T03:51:47;-3.50;99.90
18593;DHT22;9426;54.118;17.948;2023-04-06T03:57:11;-3.50;99.90
18593;DHT22;9426;54.118;17.948;2023-04-06T04:02:34;-3.50;99.90
18593;DHT22;9426;54.118;17.948;2023-04-06T04:07:59;-3.50;99.90
18593;DHT22;9426;54.118;17.948;2023-04-06T04:13:23;-3.40;99.90
18593;DHT22;9426;54.118;17.948;2023-04-06T04:18:47;-3.50;99.90
18593;DHT22;9426;54.118;17.948;2023-04-06T04:24:12;-3.60;99.90
18593;DHT22;9426;54.118;17.948;2023-04-06T04:29:35;-3.70;99.90
18593;DHT22;9426;54.118;17.948;2023-04-06T04:35:03;-3.70;99.90
18593;DHT22;9426;54.118;17.948;2023-04-06T04:40:32;-3.80;99.90
18593;DHT22;9426;54.118;17.948;2023-04-06T04:46:01;-3.70;99.90
18593;DHT22;9426;54.118;17.948;2023-04-06T04:51:33;-3.80;99.90
18593;DHT22;9426;54.118;17.948;2023-04-06T04:57:09;-3.80;99.90
18593;DHT22;9426;54.118;17.948;2023-04-06T05:02:35;-3.60;99.90
18593;DHT22;9426;54.118;17.948;2023-04-06T05:08:12;-3.50;99.90
18593;DHT22;9426;54.118;17.948;2023-04-06T05:13:42;-3.20;99.90
18593;DHT22;9426;54.118;17.948;2023-04-06T05:19:13;-2.90;99.90
18593;DHT22;9426;54.118;17.948;2023-04-06T05:24:39;-2.70;99.90
18593;DHT22;9426;54.118;17.948;2023-04-06T05:30:07;-2.50;99.90
18593;DHT22;9426;54.118;17.948;2023-04-06T05:35:37;-2.20;99.90
18593;DHT22;9426;54.118;17.948;2023-04-06T05:41:05;-1.90;99.90
18593;DHT22;9426;54.118;17.948;2023-04-06T05:46:31;-1.70;99.90
18593;DHT22;9426;54.118;17.948;2023-04-06T05:51:55;-1.50;99.90
18593;DHT22;9426;54.118;17.948;2023-04-06T05:57:19;-1.20;99.90
18593;DHT22;9426;54.118;17.948;2023-04-06T06:02:45;-1.00;99.90
18593;DHT22;9426;54.118;17.948;2023-04-06T06:08:13;-0.70;99.90
18593;DHT22;9426;54.118;17.948;2023-04-06T06:13:37;-0.50;99.90
18593;DHT22;9426;54.118;17.948;2023-04-06T06:19:07;-0.20;99.90
18593;DHT22;9426;54.118;17.948;2023-04-06T06:24:31;0.10;99.90
18593;DHT22;9426;54.118;17.948;2023-04-06T06:29:55;0.30;99.90
18593;DHT22;9426;54.118;17.948;2023-04-06T06:35:21;0.40;99.90
18593;DHT22;9426;54.118;17.948;2023-04-06T06:40:45;0.60;99.90
18593;DHT22;9426;54.118;17.948;2023-04-06T06:46:10;0.80;99.90
18593;DHT22;9426;54.118;17.948;2023-04-06T06:51:36;0.90;99.90
18593;DHT22;9426;54.118;17.948;2023-04-06T06:57:01;1.10;99.90
18593;DHT22;9426;54.118;17.948;2023-04-06T07:02:25;1.20;99.90
18593;DHT22;9426;54.118;17.948;2023-04-06T07:07:50;1.30;99.90
18593;DHT22;9426;54.118;17.948;2023-04-06T07:13:13;1.50;99.90
18593;DHT22;9426;54.118;17.948;2023-04-06T07:18:40;1.70;99.90
18593;DHT22;9426;54.118;17.948;2023-04-06T07:24:06;2.00;99.90
18593;DHT22;9426;54.118;17.948;2023-04-06T07:29:30;2.20;99.90
18593;DHT22;9426;54.118;17.948;2023-04-06T07:34:54;2.30;99.90
18593;DHT22;9426;54.118;17.948;2023-04-06T07:40:19;2.50;99.90
18593;DHT22;9426;54.118;17.948;2023-04-06T07:45:44;2.80;99.90
18593;DHT22;9426;54.118;17.948;2023-04-06T07:51:10;3.20;99.90
18593;DHT22;9426;54.118;17.948;2023-04-06T07:56:40;3.60;99.90
18593;DHT22;9426;54.118;17.948;2023-04-06T08:02:04;4.00;99.90
18593;DHT22;9426;54.118;17.948;2023-04-06T08:07:28;4.50;99.90
18593;DHT22;9426;54.118;17.948;2023-04-06T08:12:54;5.10;99.90
18593;DHT22;9426;54.118;17.948;2023-04-06T08:18:18;5.40;99.90
18593;DHT22;9426;54.118;17.948;2023-04-06T08:23:41;5.40;99.90
18593;DHT22;9426;54.118;17.948;2023-04-06T08:29:07;5.60;99.90
18593;DHT22;9426;54.118;17.948;2023-04-06T08:34:32;5.80;99.90
18593;DHT22;9426;54.118;17.948;2023-04-06T08:39:58;5.80;99.90
18593;DHT22;9426;54.118;17.948;2023-04-06T08:45:23;6.20;99.90
18593;DHT22;9426;54.118;17.948;2023-04-06T08:50:47;6.50;99.90
18593;DHT22;9426;54.118;17.948;2023-04-06T08:56:11;6.90;99.90
18593;DHT22;9426;54.118;17.948;2023-04-06T09:01:40;7.00;99.90
18593;DHT22;9426;54.118;17.948;2023-04-06T09:07:07;7.10;99.90
18593;DHT22;9426;54.118;17.948;2023-04-06T09:12:32;6.40;99.90
18593;DHT22;9426;54.118;17.948;2023-04-06T09:17:58;5.90;99.90
18593;DHT22;9426;54.118;17.948;2023-04-06T09:23:21;5.30;99.90
18593;DHT22;9426;54.118;17.948;2023-04-06T09:28:47;4.90;99.90
18593;DHT22;9426;54.118;17.948;2023-04-06T09:34:21;4.80;99.90
18593;DHT22;9426;54.118;17.948;2023-04-06T09:39:45;4.80;99.90
18593;DHT22;9426;54.118;17.948;2023-04-06T09:45:09;5.00;99.90
18593;DHT22;9426;54.118;17.948;2023-04-06T09:50:35;5.70;99.90
18593;DHT22;9426;54.118;17.948;2023-04-06T09:56:02;6.20;99.90
18593;DHT22;9426;54.118;17.948;2023-04-06T10:01:30;6.50;99.90
18593;DHT22;9426;54.118;17.948;2023-04-06T10:07:00;6.80;97.80
18593;DHT22;9426;54.118;17.948;2023-04-06T10:12:26;6.50;96.10
18593;DHT22;9426;54.118;17.948;2023-04-06T10:17:51;6.30;98.00
18593;DHT22;9426;54.118;17.948;2023-04-06T10:23:22;6.50;97.70
18593;DHT22;9426;54.118;17.948;2023-04-06T10:28:49;6.50;97.00
18593;DHT22;9426;54.118;17.948;2023-04-06T10:34:15;6.70;98.60
18593;DHT22;9426;54.118;17.948;2023-04-06T10:39:52;7.20;97.90
18593;DHT22;9426;54.118;17.948;2023-04-06T10:45:22;8.00;95.90
18593;DHT22;9426;54.118;17.948;2023-04-06T10:50:48;8.10;91.10
18593;DHT22;9426;54.118;17.948;2023-04-06T10:56:16;8.70;92.50
18593;DHT22;9426;54.118;17.948;2023-04-06T11:01:45;9.20;90.30
18593;DHT22;9426;54.118;17.948;2023-04-06T11:07:12;9.80;90.60
18593;DHT22;9426;54.118;17.948;2023-04-06T11:12:56;10.00;85.30
18593;DHT22;9426;54.118;17.948;2023-04-06T11:18:22;9.90;85.30
18593;DHT22;9426;54.118;17.948;2023-04-06T11:23:50;9.50;82.70
18593;DHT22;9426;54.118;17.948;2023-04-06T11:29:25;8.80;81.70
18593;DHT22;9426;54.118;17.948;2023-04-06T11:34:54;8.40;84.40
18593;DHT22;9426;54.118;17.948;2023-04-06T11:40:28;9.00;85.70
18593;DHT22;9426;54.118;17.948;2023-04-06T11:46:02;10.60;79.00
18593;DHT22;9426;54.118;17.948;2023-04-06T11:51:34;11.80;73.20
18593;DHT22;9426;54.118;17.948;2023-04-06T11:57:05;13.30;69.00
18593;DHT22;9426;54.118;17.948;2023-04-06T12:02:39;13.90;61.60
18593;DHT22;9426;54.118;17.948;2023-04-06T12:08:23;13.50;60.80
18593;DHT22;9426;54.118;17.948;2023-04-06T12:13:53;14.80;59.60
18593;DHT22;9426;54.118;17.948;2023-04-06T12:19:25;15.60;55.30
18593;DHT22;9426;54.118;17.948;2023-04-06T12:24:52;14.10;56.50
18593;DHT22;9426;54.118;17.948;2023-04-06T12:30:20;13.30;57.90
18593;DHT22;9426;54.118;17.948;2023-04-06T12:35:50;14.20;57.30
18593;DHT22;9426;54.118;17.948;2023-04-06T12:46:48;16.80;51.80
18593;DHT22;9426;54.118;17.948;2023-04-06T12:52:17;16.70;50.10
18593;DHT22;9426;54.118;17.948;2023-04-06T12:57:42;14.70;53.00
18593;DHT22;9426;54.118;17.948;2023-04-06T13:03:19;14.40;54.10
18593;DHT22;9426;54.118;17.948;2023-04-06T13:08:45;15.60;51.30
18593;DHT22;9426;54.118;17.948;2023-04-06T13:14:16;16.30;50.50
18593;DHT22;9426;54.118;17.948;2023-04-06T13:19:40;16.50;50.40
18593;DHT22;9426;54.118;17.948;2023-04-06T13:25:10;16.60;48.90
18593;DHT22;9426;54.118;17.948;2023-04-06T13:30:33;17.80;47.40
18593;DHT22;9426;54.118;17.948;2023-04-06T13:35:58;17.90;46.20
18593;DHT22;9426;54.118;17.948;2023-04-06T13:41:24;17.20;45.50
18593;DHT22;9426;54.118;17.948;2023-04-06T13:46:58;16.90;46.40
18593;DHT22;9426;54.118;17.948;2023-04-06T13:52:21;17.20;46.80
18593;DHT22;9426;54.118;17.948;2023-04-06T13:57:46;17.00;46.20
18593;DHT22;9426;54.118;17.948;2023-04-06T14:03:10;16.20;46.50
18593;DHT22;9426;54.118;17.948;2023-04-06T14:08:33;14.70;49.50
18593;DHT22;9426;54.118;17.948;2023-04-06T14:13:58;15.00;50.80
18593;DHT22;9426;54.118;17.948;2023-04-06T14:19:22;16.10;47.50
18593;DHT22;9426;54.118;17.948;2023-04-06T14:24:46;16.30;46.10
18593;DHT22;9426;54.118;17.948;2023-04-06T14:30:12;16.10;46.60
18593;DHT22;9426;54.118;17.948;2023-04-06T14:35:38;16.20;44.90
18593;DHT22;9426;54.118;17.948;2023-04-06T14:41:02;15.80;46.70
18593;DHT22;9426;54.118;17.948;2023-04-06T14:46:27;16.40;45.20
18593;DHT22;9426;54.118;17.948;2023-04-06T14:51:50;15.70;45.80
18593;DHT22;9426;54.118;17.948;2023-04-06T14:57:15;14.90;46.20
18593;DHT22;9426;54.118;17.948;2023-04-06T15:02:40;13.50;48.70
18593;DHT22;9426;54.118;17.948;2023-04-06T15:08:05;12.60;50.40
18593;DHT22;9426;54.118;17.948;2023-04-06T15:13:29;12.20;51.10
18593;DHT22;9426;54.118;17.948;2023-04-06T15:18:55;12.20;51.60
18593;DHT22;9426;54.118;17.948;2023-04-06T15:24:18;12.90;51.40
18593;DHT22;9426;54.118;17.948;2023-04-06T15:29:43;14.40;49.90
18593;DHT22;9426;54.118;17.948;2023-04-06T15:35:12;15.10;45.90
18593;DHT22;9426;54.118;17.948;2023-04-06T15:40:43;13.60;48.10
18593;DHT22;9426;54.118;17.948;2023-04-06T15:46:07;11.60;52.40
18593;DHT22;9426;54.118;17.948;2023-04-06T15:51:34;10.30;57.00
18593;DHT22;9426;54.118;17.948;2023-04-06T15:56:58;9.60;60.00
18593;DHT22;9426;54.118;17.948;2023-04-06T16:02:22;9.40;60.30
18593;DHT22;9426;54.118;17.948;2023-04-06T16:07:52;8.90;62.30
18593;DHT22;9426;54.118;17.948;2023-04-06T16:13:15;8.70;63.70
18593;DHT22;9426;54.118;17.948;2023-04-06T16:18:39;8.80;64.80
18593;DHT22;9426;54.118;17.948;2023-04-06T16:24:05;9.10;63.70
18593;DHT22;9426;54.118;17.948;2023-04-06T16:29:29;9.30;64.20
18593;DHT22;9426;54.118;17.948;2023-04-06T16:34:53;8.70;65.20
18593;DHT22;9426;54.118;17.948;2023-04-06T16:40:19;7.50;69.80
18593;DHT22;9426;54.118;17.948;2023-04-06T16:45:49;6.60;75.70
18593;DHT22;9426;54.118;17.948;2023-04-06T16:51:13;5.80;89.30
18593;DHT22;9426;54.118;17.948;2023-04-06T16:56:38;5.40;99.00
18593;DHT22;9426;54.118;17.948;2023-04-06T17:02:02;5.00;99.90
18593;DHT22;9426;54.118;17.948;2023-04-06T17:07:26;4.70;99.90
18593;DHT22;9426;54.118;17.948;2023-04-06T17:12:54;4.50;99.90
18593;DHT22;9426;54.118;17.948;2023-04-06T17:18:19;4.30;99.90
18593;DHT22;9426;54.118;17.948;2023-04-06T17:23:44;4.10;99.90
18593;DHT22;9426;54.118;17.948;2023-04-06T17:29:09;4.00;99.90
18593;DHT22;9426;54.118;17.948;2023-04-06T17:34:32;4.00;99.90
18593;DHT22;9426;54.118;17.948;2023-04-06T17:39:56;3.80;99.90
18593;DHT22;9426;54.118;17.948;2023-04-06T17:45:22;3.80;99.90
18593;DHT22;9426;54.118;17.948;2023-04-06T17:50:45;3.80;99.90
18593;DHT22;9426;54.118;17.948;2023-04-06T17:56:08;3.70;99.90
18593;DHT22;9426;54.118;17.948;2023-04-06T18:01:34;3.70;99.90
18593;DHT22;9426;54.118;17.948;2023-04-06T18:06:57;3.60;99.90
18593;DHT22;9426;54.118;17.948;2023-04-06T18:12:21;3.40;99.90
18593;DHT22;9426;54.118;17.948;2023-04-06T18:17:46;3.40;99.90
18593;DHT22;9426;54.118;17.948;2023-04-06T18:23:12;3.30;99.90
18593;DHT22;9426;54.118;17.948;2023-04-06T18:28:35;3.20;99.90
18593;DHT22;9426;54.118;17.948;2023-04-06T18:34:01;3.10;99.90
18593;DHT22;9426;54.118;17.948;2023-04-06T18:39:25;3.20;99.90
18593;DHT22;9426;54.118;17.948;2023-04-06T18:44:49;3.20;99.90
18593;DHT22;9426;54.118;17.948;2023-04-06T18:50:14;3.10;99.90
18593;DHT22;9426;54.118;17.948;2023-04-06T18:55:39;3.10;99.90
18593;DHT22;9426;54.118;17.948;2023-04-06T19:01:03;3.10;99.90
18593;DHT22;9426;54.118;17.948;2023-04-06T19:06:28;3.10;99.90
18593;DHT22;9426;54.118;17.948;2023-04-06T19:11:52;3.10;99.90
18593;DHT22;9426;54.118;17.948;2023-04-06T19:17:16;3.10;99.90
18593;DHT22;9426;54.118;17.948;2023-04-06T19:22:41;3.00;99.90
18593;DHT22;9426;54.118;17.948;2023-04-06T19:28:06;3.00;99.90
18593;DHT22;9426;54.118;17.948;2023-04-06T19:33:35;3.10;99.90
18593;DHT22;9426;54.118;17.948;2023-04-06T19:39:07;3.00;99.90
18593;DHT22;9426;54.118;17.948;2023-04-06T19:44:31;3.10;99.90
18593;DHT22;9426;54.118;17.948;2023-04-06T19:49:55;3.10;99.90
18593;DHT22;9426;54.118;17.948;2023-04-06T19:55:20;3.00;99.90
18593;DHT22;9426;54.118;17.948;2023-04-06T20:00:43;3.00;99.90
18593;DHT22;9426;54.118;17.948;2023-04-06T20:06:07;3.00;99.90
18593;DHT22;9426;54.118;17.948;2023-04-06T20:11:33;3.00;99.90
18593;DHT22;9426;54.118;17.948;2023-04-06T20:16:57;3.00;99.90
18593;DHT22;9426;54.118;17.948;2023-04-06T20:22:22;3.00;99.90
18593;DHT22;9426;54.118;17.948;2023-04-06T20:27:47;3.00;99.90
18593;DHT22;9426;54.118;17.948;2023-04-06T20:33:11;2.90;99.90
18593;DHT22;9426;54.118;17.948;2023-04-06T20:38:38;2.90;99.90
18593;DHT22;9426;54.118;17.948;2023-04-06T20:44:05;2.80;99.90
18593;DHT22;9426;54.118;17.948;2023-04-06T20:49:30;2.70;99.90
18593;DHT22;9426;54.118;17.948;2023-04-06T20:54:54;2.60;99.90
18593;DHT22;9426;54.118;17.948;2023-04-06T21:00:20;2.70;99.90
18593;DHT22;9426;54.118;17.948;2023-04-06T21:05:49;2.70;99.90
18593;DHT22;9426;54.118;17.948;2023-04-06T21:11:14;2.60;99.90
18593;DHT22;9426;54.118;17.948;2023-04-06T21:16:41;2.50;99.90
18593;DHT22;9426;54.118;17.948;2023-04-06T21:22:05;2.40;99.90
18593;DHT22;9426;54.118;17.948;2023-04-06T21:27:31;2.40;99.90
18593;DHT22;9426;54.118;17.948;2023-04-06T21:32:57;2.40;99.90
18593;DHT22;9426;54.118;17.948;2023-04-06T21:38:22;2.20;99.90
18593;DHT22;9426;54.118;17.948;2023-04-06T21:43:46;2.20;99.90
18593;DHT22;9426;54.118;17.948;2023-04-06T21:49:11;2.20;99.90
18593;DHT22;9426;54.118;17.948;2023-04-06T21:54:34;2.20;99.90
18593;DHT22;9426;54.118;17.948;2023-04-06T21:59:58;2.20;99.90
18593;DHT22;9426;54.118;17.948;2023-04-06T22:05:23;2.20;99.90
18593;DHT22;9426;54.118;17.948;2023-04-06T22:10:46;2.30;99.90
18593;DHT22;9426;54.118;17.948;2023-04-06T22:16:10;2.30;99.90
18593;DHT22;9426;54.118;17.948;2023-04-06T22:21:35;2.30;99.90
18593;DHT22;9426;54.118;17.948;2023-04-06T22:26:58;2.30;99.90
18593;DHT22;9426;54.118;17.948;2023-04-06T22:32:22;2.30;99.90
18593;DHT22;9426;54.118;17.948;2023-04-06T22:37:47;2.30;99.90
18593;DHT22;9426;54.118;17.948;2023-04-06T22:43:12;2.30;99.90
18593;DHT22;9426;54.118;17.948;2023-04-06T22:48:36;2.30;99.90
18593;DHT22;9426;54.118;17.948;2023-04-06T22:54:01;2.30;99.90
18593;DHT22;9426;54.118;17.948;2023-04-06T22:59:24;2.30;99.90
18593;DHT22;9426;54.118;17.948;2023-04-06T23:04:47;2.40;99.90
18593;DHT22;9426;54.118;17.948;2023-04-06T23:10:12;2.30;99.90
18593;DHT22;9426;54.118;17.948;2023-04-06T23:15:36;2.30;99.90
18593;DHT22;9426;54.118;17.948;2023-04-06T23:20:59;2.40;99.90
18593;DHT22;9426;54.118;17.948;2023-04-06T23:26:24;2.40;99.90
18593;DHT22;9426;54.118;17.948;2023-04-06T23:31:48;2.40;99.90
18593;DHT22;9426;54.118;17.948;2023-04-06T23:37:11;2.40;99.90
18593;DHT22;9426;54.118;17.948;2023-04-06T23:42:37;2.50;99.90
18593;DHT22;9426;54.118;17.948;2023-04-06T23:48:00;2.60;99.90
18593;DHT22;9426;54.118;17.948;2023-04-06T23:53:24;2.60;99.90
18593;DHT22;9426;54.118;17.948;2023-04-06T23:58:49;2.60;99.90
